createdAt,value
2017-10-04T00:00:51.807Z,12.30
2017-10-04T00:03:19.949Z,12.40
2017-10-04T00:05:48.861Z,12.20
2017-10-04T00:08:16.995Z,12.20
2017-10-04T00:10:45.141Z,12.40
2017-10-04T00:13:13.923Z,12.40
2017-10-04T00:15:42.068Z,12.50
2017-10-04T00:18:10.212Z,12.50
2017-10-04T00:20:39.415Z,12.50
2017-10-04T00:23:07.745Z,12.40
2017-10-04T00:25:35.893Z,12.30
2017-10-04T00:28:04.029Z,12.20
2017-10-04T00:30:32.162Z,12.30
2017-10-04T00:33:00.298Z,12.30
2017-10-04T00:35:29.044Z,12.30
2017-10-04T00:37:57.285Z,12.10
2017-10-04T00:40:25.410Z,12.00
2017-10-04T00:42:54.327Z,12.20
2017-10-04T00:45:22.464Z,12.20
2017-10-04T00:47:50.600Z,12.30
2017-10-04T00:50:19.512Z,11.90
2017-10-04T00:52:47.664Z,11.90
2017-10-04T00:55:15.790Z,12.00
2017-10-04T00:57:43.958Z,12.10
2017-10-04T01:00:12.846Z,12.10
2017-10-04T01:02:41.049Z,12.10
2017-10-04T01:05:09.226Z,12.20
2017-10-04T01:07:37.349Z,12.10
2017-10-04T01:10:05.533Z,12.10
2017-10-04T01:12:33.676Z,12.10
2017-10-04T01:15:02.603Z,12.10
2017-10-04T01:17:31.554Z,11.80
2017-10-04T01:19:59.692Z,11.80
2017-10-04T01:22:27.837Z,11.70
2017-10-04T01:24:56.753Z,12.00
2017-10-04T01:27:24.896Z,12.00
2017-10-04T01:29:53.812Z,12.10
2017-10-04T01:32:21.954Z,12.00
2017-10-04T01:34:50.115Z,11.60
2017-10-04T01:37:18.257Z,11.60
2017-10-04T01:39:46.436Z,11.70
2017-10-04T01:42:14.583Z,11.80
2017-10-04T01:44:42.716Z,11.40
2017-10-04T01:47:10.875Z,11.60
2017-10-04T01:49:38.990Z,11.70
2017-10-04T01:52:07.139Z,11.80
2017-10-04T01:54:36.045Z,12.00
2017-10-04T01:57:04.259Z,11.90
2017-10-04T01:59:32.411Z,11.90
2017-10-04T02:02:00.568Z,11.60
2017-10-04T02:04:28.732Z,11.70
2017-10-04T02:06:57.636Z,11.90
2017-10-04T02:09:25.788Z,11.80
2017-10-04T02:11:54.706Z,11.80
2017-10-04T02:14:22.862Z,11.80
2017-10-04T02:16:51.004Z,11.80
2017-10-04T02:19:19.167Z,11.70
2017-10-04T02:21:47.370Z,11.50
2017-10-04T02:24:15.482Z,11.40
2017-10-04T02:26:43.620Z,11.50
2017-10-04T02:29:12.553Z,11.50
2017-10-04T02:31:40.688Z,11.50
2017-10-04T02:34:08.816Z,11.60
2017-10-04T02:36:37.003Z,11.60
2017-10-04T02:39:05.165Z,11.60
2017-10-04T02:41:33.300Z,11.60
2017-10-04T02:44:01.433Z,11.40
2017-10-04T02:46:30.329Z,11.40
2017-10-04T02:48:59.236Z,11.30
2017-10-04T02:51:27.377Z,11.30
2017-10-04T02:53:56.257Z,11.20
2017-10-04T02:56:24.464Z,11.30
2017-10-04T02:58:53.436Z,11.40
2017-10-04T03:01:21.566Z,11.50
2017-10-04T03:03:49.705Z,11.60
2017-10-04T03:06:17.852Z,11.50
2017-10-04T03:08:46.005Z,11.30
2017-10-04T03:11:14.168Z,11.40
2017-10-04T03:13:42.324Z,11.40
2017-10-04T03:16:10.486Z,11.60
2017-10-04T03:18:38.604Z,11.70
2017-10-04T03:21:06.734Z,11.70
2017-10-04T03:23:35.031Z,11.50
2017-10-04T03:26:03.189Z,11.30
2017-10-04T03:28:32.092Z,11.30
2017-10-04T03:31:00.220Z,11.30
2017-10-04T03:33:28.390Z,11.10
2017-10-04T03:35:56.544Z,10.90
2017-10-04T03:38:24.692Z,11.00
2017-10-04T03:40:52.831Z,11.10
2017-10-04T03:43:20.977Z,11.10
2017-10-04T03:45:49.905Z,11.30
2017-10-04T03:48:18.062Z,11.20
2017-10-04T03:50:46.270Z,11.10
2017-10-04T03:53:14.398Z,11.30
2017-10-04T03:55:43.299Z,11.50
2017-10-04T03:58:11.442Z,11.40
2017-10-04T04:00:40.357Z,11.40
2017-10-04T04:03:08.508Z,11.30
2017-10-04T04:05:37.430Z,11.50
2017-10-04T04:08:05.636Z,11.50
2017-10-04T04:10:33.763Z,11.60
2017-10-04T04:13:01.939Z,11.60
2017-10-04T04:15:30.060Z,11.50
2017-10-04T04:17:58.185Z,11.20
2017-10-04T04:20:26.330Z,11.20
2017-10-04T04:22:55.238Z,11.30
2017-10-04T04:25:23.394Z,11.30
2017-10-04T04:27:52.298Z,11.20
2017-10-04T04:30:21.199Z,11.20
2017-10-04T04:32:49.340Z,11.20
2017-10-04T04:35:17.495Z,11.30
2017-10-04T04:37:45.825Z,11.00
2017-10-04T04:40:13.986Z,11.10
2017-10-04T04:42:42.215Z,10.90
2017-10-04T04:45:10.344Z,11.10
2017-10-04T04:47:38.488Z,11.20
2017-10-04T04:50:07.449Z,11.30
2017-10-04T04:52:35.588Z,11.30
2017-10-04T04:55:03.755Z,11.40
2017-10-04T04:57:31.897Z,11.30
2017-10-04T05:00:00.101Z,11.30
2017-10-04T05:02:28.754Z,11.30
2017-10-04T05:04:59.254Z,11.20
2017-10-04T05:07:30.021Z,10.90
2017-10-04T05:10:01.000Z,11.10
2017-10-04T05:12:31.729Z,11.10
2017-10-04T05:15:02.717Z,11.20
2017-10-04T05:17:32.941Z,11.20
2017-10-04T05:20:03.289Z,11.20
2017-10-04T05:22:33.436Z,11.20
2017-10-04T05:25:03.151Z,11.10
2017-10-04T05:27:34.392Z,11.10
2017-10-04T05:30:04.542Z,11.10
2017-10-04T05:32:32.849Z,11.00
2017-10-04T05:35:01.794Z,11.00
2017-10-04T05:37:29.957Z,11.00
2017-10-04T05:39:58.142Z,10.90
2017-10-04T05:42:26.294Z,11.00
2017-10-04T05:44:54.525Z,11.00
2017-10-04T05:47:23.474Z,11.00
2017-10-04T05:49:51.625Z,11.00
2017-10-04T05:52:19.771Z,11.00
2017-10-04T05:54:47.929Z,10.90
2017-10-04T05:57:16.857Z,10.90
2017-10-04T05:59:44.990Z,10.90
2017-10-04T06:02:13.905Z,10.90
2017-10-04T06:04:42.103Z,10.90
2017-10-04T06:07:10.221Z,10.90
2017-10-04T06:09:39.136Z,10.80
2017-10-04T06:12:08.070Z,10.80
2017-10-04T06:14:36.258Z,10.80
2017-10-04T06:17:04.442Z,10.70
2017-10-04T06:19:33.357Z,10.80
2017-10-04T06:22:02.405Z,10.80
2017-10-04T06:24:30.656Z,10.80
2017-10-04T06:26:58.923Z,10.80
2017-10-04T06:29:27.065Z,10.80
2017-10-04T06:31:56.026Z,10.80
2017-10-04T06:34:24.192Z,10.80
2017-10-04T06:36:52.332Z,10.80
2017-10-04T06:39:20.458Z,10.80
2017-10-04T06:41:48.601Z,10.90
2017-10-04T06:44:16.726Z,11.00
2017-10-04T06:46:46.285Z,11.10
2017-10-04T06:49:14.560Z,11.10
2017-10-04T06:51:42.709Z,11.20
2017-10-04T06:54:10.866Z,11.10
2017-10-04T06:56:39.071Z,11.10
2017-10-04T06:59:07.254Z,11.20
2017-10-04T07:01:35.400Z,11.20
2017-10-04T07:04:03.536Z,11.20
2017-10-04T07:06:32.452Z,11.30
2017-10-04T07:09:00.579Z,11.20
2017-10-04T07:11:28.745Z,11.30
2017-10-04T07:13:56.934Z,11.30
2017-10-04T07:16:25.059Z,11.30
2017-10-04T07:18:53.296Z,11.40
2017-10-04T07:21:21.548Z,11.40
2017-10-04T07:23:49.694Z,11.50
2017-10-04T07:26:17.847Z,11.50
2017-10-04T07:28:46.005Z,11.50
2017-10-04T07:31:14.182Z,11.50
2017-10-04T07:33:42.380Z,11.60
2017-10-04T07:36:10.532Z,11.50
2017-10-04T07:38:38.695Z,11.60
2017-10-04T07:41:07.601Z,11.60
2017-10-04T07:43:35.767Z,11.60
2017-10-04T07:46:03.894Z,11.70
2017-10-04T07:48:32.061Z,11.70
2017-10-04T07:51:00.220Z,11.70
2017-10-04T07:53:28.345Z,11.80
2017-10-04T07:55:56.528Z,11.80
2017-10-04T07:58:24.682Z,11.80
2017-10-04T08:00:53.611Z,11.70
2017-10-04T08:03:21.782Z,11.70
2017-10-04T08:05:49.938Z,11.80
2017-10-04T08:08:18.092Z,11.90
2017-10-04T08:10:46.996Z,12.10
2017-10-04T08:13:15.156Z,12.10
2017-10-04T08:15:44.052Z,12.20
2017-10-04T08:18:12.237Z,12.10
2017-10-04T08:20:40.352Z,12.20
2017-10-04T08:23:08.516Z,12.20
2017-10-04T08:25:36.638Z,12.20
2017-10-04T08:28:05.543Z,12.30
2017-10-04T08:30:33.669Z,12.20
2017-10-04T08:33:01.822Z,12.30
2017-10-04T08:35:29.973Z,12.30
2017-10-04T08:37:58.114Z,12.30
2017-10-04T08:40:31.403Z,12.30
2017-10-04T08:43:00.270Z,12.30
2017-10-04T08:45:28.489Z,12.40
2017-10-04T08:47:56.656Z,12.30
2017-10-04T08:50:24.797Z,12.10
2017-10-04T08:52:52.965Z,12.30
2017-10-04T08:55:21.112Z,12.40
2017-10-04T08:57:49.284Z,12.50
2017-10-04T09:00:17.408Z,12.50
2017-10-04T09:02:46.336Z,12.60
2017-10-04T09:05:26.433Z,12.60
2017-10-04T09:07:54.615Z,12.70
2017-10-04T09:10:23.524Z,12.80
2017-10-04T09:12:51.673Z,12.80
2017-10-04T09:15:20.608Z,13.00
2017-10-04T09:17:48.746Z,13.00
2017-10-04T09:20:17.640Z,13.20
2017-10-04T09:22:46.570Z,13.30
2017-10-04T09:25:14.707Z,13.20
2017-10-04T09:27:43.600Z,13.20
2017-10-04T09:30:11.776Z,13.10
2017-10-04T09:32:39.928Z,13.00
2017-10-04T09:35:08.065Z,13.00
2017-10-04T09:37:36.204Z,13.10
2017-10-04T09:40:04.331Z,13.10
2017-10-04T09:42:32.460Z,13.10
2017-10-04T09:45:00.605Z,13.30
2017-10-04T09:47:28.736Z,13.30
2017-10-04T09:49:56.893Z,13.50
2017-10-04T09:52:25.029Z,13.50
2017-10-04T09:54:53.168Z,13.70
2017-10-04T09:57:21.293Z,13.90
2017-10-04T09:59:49.437Z,14.00
2017-10-04T10:02:17.560Z,14.20
2017-10-04T10:04:46.222Z,14.30
2017-10-04T10:07:14.349Z,14.40
2017-10-04T10:09:42.510Z,14.20
2017-10-04T10:14:46.252Z,14.30
2017-10-04T10:17:15.153Z,14.40
2017-10-04T10:19:44.044Z,14.40
2017-10-04T10:22:12.937Z,14.60
2017-10-04T10:24:41.135Z,14.60
2017-10-04T10:27:09.281Z,14.60
2017-10-04T10:29:38.339Z,14.80
2017-10-04T10:32:06.477Z,14.80
2017-10-04T10:34:34.601Z,14.80
2017-10-04T10:37:03.537Z,15.00
2017-10-04T10:39:31.648Z,14.90
2017-10-04T10:41:59.787Z,14.90
2017-10-04T10:44:27.944Z,14.90
2017-10-04T10:46:56.086Z,14.80
2017-10-04T10:49:24.987Z,14.90
2017-10-04T10:51:53.128Z,14.90
2017-10-04T10:54:21.271Z,15.00
2017-10-04T10:56:49.419Z,15.00
2017-10-04T10:59:17.557Z,15.00
2017-10-04T11:01:46.472Z,15.10
2017-10-04T11:04:15.363Z,15.20
2017-10-04T11:06:43.508Z,15.20
2017-10-04T11:09:12.413Z,15.30
2017-10-04T11:11:41.316Z,15.10
2017-10-04T11:14:09.435Z,15.10
2017-10-04T11:16:37.601Z,15.00
2017-10-04T11:19:05.724Z,14.90
2017-10-04T11:21:33.865Z,14.90
2017-10-04T11:24:01.984Z,15.00
2017-10-04T11:26:30.140Z,15.20
2017-10-04T11:28:59.025Z,15.20
2017-10-04T11:31:27.930Z,15.20
2017-10-04T11:33:56.052Z,15.20
2017-10-04T11:36:24.203Z,15.10
2017-10-04T11:38:52.336Z,15.20
2017-10-04T11:41:21.346Z,15.20
2017-10-04T11:43:49.959Z,15.20
2017-10-04T11:46:18.411Z,15.30
2017-10-04T11:48:47.413Z,15.70
2017-10-04T11:51:16.084Z,15.60
2017-10-04T11:53:44.237Z,15.80
2017-10-04T11:56:13.149Z,16.00
2017-10-04T11:58:42.023Z,15.90
2017-10-04T12:01:10.924Z,15.90
2017-10-04T12:03:39.077Z,15.90
2017-10-04T12:06:07.220Z,15.90
2017-10-04T12:08:35.360Z,15.90
2017-10-04T12:11:03.481Z,16.10
2017-10-04T12:13:31.635Z,16.20
2017-10-04T12:15:59.760Z,16.30
2017-10-04T12:18:28.722Z,16.20
2017-10-04T12:20:58.628Z,16.20
2017-10-04T12:23:26.756Z,16.40
2017-10-04T12:25:54.906Z,16.40
2017-10-04T12:28:23.071Z,16.60
2017-10-04T12:30:52.008Z,16.50
2017-10-04T12:33:21.041Z,16.50
2017-10-04T12:35:49.176Z,16.60
2017-10-04T12:38:17.335Z,16.60
2017-10-04T12:40:45.536Z,16.60
2017-10-04T12:43:14.456Z,16.50
2017-10-04T12:45:43.337Z,16.50
2017-10-04T12:48:11.472Z,16.40
2017-10-04T12:50:39.643Z,16.50
2017-10-04T12:53:07.825Z,16.60
2017-10-04T12:55:36.035Z,16.60
2017-10-04T12:58:04.947Z,16.90
2017-10-04T13:00:33.858Z,17.00
2017-10-04T13:03:01.994Z,16.90
2017-10-04T13:05:30.916Z,16.80
2017-10-04T13:07:59.054Z,16.80
2017-10-04T13:10:27.176Z,16.70
2017-10-04T13:12:56.093Z,16.80
2017-10-04T13:15:24.229Z,16.80
2017-10-04T13:17:52.366Z,17.00
2017-10-04T13:20:20.521Z,17.20
2017-10-04T13:22:48.663Z,17.00
2017-10-04T13:25:16.853Z,17.00
2017-10-04T13:27:45.004Z,17.20
2017-10-04T13:30:13.133Z,17.20
2017-10-04T13:32:42.061Z,17.20
2017-10-04T13:35:10.207Z,17.20
2017-10-04T13:37:38.336Z,17.20
2017-10-04T13:40:06.517Z,17.20
2017-10-04T13:42:34.633Z,17.20
2017-10-04T13:45:03.550Z,17.30
2017-10-04T13:47:31.697Z,17.20
2017-10-04T13:50:00.633Z,17.30
2017-10-04T13:52:28.745Z,17.30
2017-10-04T13:54:57.677Z,17.10
2017-10-04T13:57:25.811Z,17.10
2017-10-04T13:59:53.951Z,17.10
2017-10-04T14:02:22.091Z,17.30
2017-10-04T14:04:50.245Z,17.20
2017-10-04T14:07:18.409Z,17.60
2017-10-04T14:09:47.310Z,17.70
2017-10-04T14:12:15.455Z,17.70
2017-10-04T14:14:43.592Z,18.10
2017-10-04T14:17:12.488Z,18.20
2017-10-04T14:19:40.628Z,18.20
2017-10-04T14:22:08.775Z,18.90
2017-10-04T14:24:36.917Z,19.20
2017-10-04T14:27:05.042Z,18.80
2017-10-04T14:29:33.996Z,19.90
2017-10-04T14:32:02.182Z,19.80
2017-10-04T14:34:30.306Z,20.30
2017-10-04T14:36:58.444Z,20.50
2017-10-04T14:39:26.612Z,20.30
2017-10-04T14:41:54.772Z,20.10
2017-10-04T14:44:23.842Z,19.90
2017-10-04T14:46:52.945Z,19.90
2017-10-04T14:49:21.873Z,19.10
2017-10-04T14:51:50.041Z,19.10
2017-10-04T14:54:18.199Z,18.90
2017-10-04T14:56:46.361Z,18.20
2017-10-04T14:59:14.711Z,17.80
2017-10-04T15:01:43.720Z,17.70
2017-10-04T15:04:11.907Z,17.40
2017-10-04T15:06:40.063Z,17.30
2017-10-04T15:09:08.188Z,17.30
2017-10-04T15:11:37.293Z,17.20
2017-10-04T15:14:06.220Z,17.20
2017-10-04T15:16:34.421Z,17.20
2017-10-04T15:19:03.349Z,17.00
2017-10-04T15:21:32.345Z,16.80
2017-10-04T15:24:01.270Z,16.80
2017-10-04T15:26:30.262Z,16.70
2017-10-04T15:28:58.467Z,16.70
2017-10-04T15:31:26.574Z,16.80
2017-10-04T15:33:55.500Z,16.60
2017-10-04T15:36:23.634Z,16.60
2017-10-04T15:38:51.760Z,16.70
2017-10-04T15:41:19.944Z,16.80
2017-10-04T15:43:48.104Z,16.80
2017-10-04T15:46:16.253Z,16.60
2017-10-04T15:48:44.407Z,16.40
2017-10-04T15:51:13.388Z,16.20
2017-10-04T15:53:42.289Z,16.20
2017-10-04T15:56:10.477Z,16.20
2017-10-04T15:58:38.645Z,16.20
2017-10-04T16:01:07.635Z,16.00
2017-10-04T16:03:35.779Z,16.10
2017-10-04T16:06:03.951Z,16.10
2017-10-04T16:08:32.144Z,16.00
2017-10-04T16:11:00.380Z,15.90
2017-10-04T16:13:28.523Z,15.90
2017-10-04T16:15:56.669Z,15.90
2017-10-04T16:18:25.622Z,15.80
2017-10-04T16:20:53.746Z,15.80
2017-10-04T16:23:21.949Z,15.80
2017-10-04T16:25:50.082Z,15.70
2017-10-04T16:28:18.254Z,15.80
2017-10-04T16:30:46.431Z,15.70
2017-10-04T16:33:15.803Z,15.70
2017-10-04T16:35:43.943Z,15.60
2017-10-04T16:38:12.098Z,15.60
2017-10-04T16:40:40.242Z,15.60
2017-10-04T16:43:08.392Z,15.60
2017-10-04T16:45:36.563Z,15.50
2017-10-04T16:48:04.805Z,15.60
2017-10-04T16:50:32.937Z,15.60
2017-10-04T16:53:01.072Z,15.40
2017-10-04T16:55:29.258Z,15.40
2017-10-04T16:57:57.422Z,15.30
2017-10-04T17:00:25.590Z,15.40
2017-10-04T17:02:53.834Z,15.30
2017-10-04T17:05:21.999Z,15.20
2017-10-04T17:07:50.143Z,15.20
2017-10-04T17:10:19.059Z,15.30
2017-10-04T17:12:47.310Z,15.30
2017-10-04T17:15:17.082Z,15.30
2017-10-04T17:17:45.238Z,15.30
2017-10-04T17:20:14.210Z,15.30
2017-10-04T17:22:42.790Z,15.30
2017-10-04T17:25:10.930Z,15.40
2017-10-04T17:27:39.187Z,15.40
2017-10-04T17:30:08.582Z,15.30
2017-10-04T17:32:36.772Z,15.40
2017-10-04T17:35:04.907Z,15.10
2017-10-04T17:37:33.838Z,15.20
2017-10-04T17:40:02.833Z,15.20
2017-10-04T17:42:31.786Z,15.20
2017-10-04T17:45:01.315Z,15.10
2017-10-04T17:47:30.334Z,15.10
2017-10-04T17:50:00.121Z,15.20
2017-10-04T17:52:30.283Z,15.20
2017-10-04T17:54:59.037Z,15.20
2017-10-04T17:57:28.761Z,15.30
2017-10-04T17:59:57.960Z,15.20
2017-10-04T18:02:27.124Z,15.30
2017-10-04T18:04:56.154Z,15.30
2017-10-04T18:07:25.280Z,15.20
2017-10-04T18:09:54.101Z,15.30
2017-10-04T18:12:23.435Z,15.30
2017-10-04T18:14:53.424Z,15.20
2017-10-04T18:17:21.818Z,15.20
2017-10-04T18:19:50.987Z,15.10
2017-10-04T18:22:19.736Z,15.20
2017-10-04T18:24:48.420Z,15.20
2017-10-04T18:27:17.071Z,15.20
2017-10-04T18:29:46.192Z,15.10
2017-10-04T18:32:16.324Z,15.10
2017-10-04T18:34:45.071Z,15.10
2017-10-04T18:37:13.401Z,15.10
2017-10-04T18:39:41.709Z,15.00
2017-10-04T18:42:09.929Z,14.90
2017-10-04T18:44:38.511Z,14.80
2017-10-04T18:47:06.660Z,15.00
2017-10-04T18:49:35.615Z,15.00
2017-10-04T18:52:04.252Z,15.00
2017-10-04T18:54:33.140Z,14.90
2017-10-04T18:57:02.066Z,14.90
2017-10-04T18:59:30.225Z,14.90
2017-10-04T19:01:58.384Z,14.90
2017-10-04T19:04:26.541Z,15.00
2017-10-04T19:06:54.697Z,15.00
2017-10-04T19:09:23.316Z,15.00
2017-10-04T19:11:51.449Z,15.10
2017-10-04T19:14:19.604Z,15.10
2017-10-04T19:16:47.768Z,15.00
2017-10-04T19:19:15.929Z,15.00
2017-10-04T19:21:44.903Z,15.10
2017-10-04T19:24:13.064Z,15.20
2017-10-04T19:26:41.209Z,15.20
2017-10-04T19:29:10.121Z,15.30
2017-10-04T19:31:44.877Z,15.30
2017-10-04T19:34:12.990Z,15.30
2017-10-04T19:36:42.137Z,15.40
2017-10-04T19:39:10.295Z,15.20
2017-10-04T19:41:38.468Z,15.20
2017-10-04T19:44:06.667Z,15.20
2017-10-04T19:46:34.815Z,15.20
2017-10-04T19:49:03.728Z,14.90
2017-10-04T19:51:31.927Z,14.90
2017-10-04T19:54:00.145Z,14.80
2017-10-04T19:56:28.273Z,14.60
2017-10-04T19:58:56.439Z,14.70
2017-10-04T20:01:24.681Z,14.80
2017-10-04T20:03:59.642Z,14.70
2017-10-04T20:06:27.831Z,14.70
2017-10-04T20:08:56.601Z,14.80
2017-10-04T20:11:27.277Z,14.60
2017-10-04T20:13:55.443Z,14.50
2017-10-04T20:16:23.582Z,14.40
2017-10-04T20:18:51.748Z,14.40
2017-10-04T20:21:19.896Z,14.50
2017-10-04T20:23:48.027Z,14.50
2017-10-04T20:26:16.197Z,14.60
2017-10-04T20:28:44.353Z,14.50
2017-10-04T20:31:12.501Z,14.60
2017-10-04T20:33:40.672Z,14.40
2017-10-04T20:36:08.832Z,14.50
2017-10-04T20:38:41.288Z,14.60
2017-10-04T20:41:10.776Z,14.60
2017-10-04T20:43:38.917Z,14.50
2017-10-04T20:46:07.053Z,14.50
2017-10-04T20:48:35.181Z,14.50
2017-10-04T20:51:03.341Z,14.50
2017-10-04T20:53:31.492Z,14.60
2017-10-04T20:55:59.637Z,14.70
2017-10-04T20:58:28.541Z,14.70
2017-10-04T21:00:56.802Z,14.70
2017-10-04T21:03:24.946Z,14.50
2017-10-04T21:05:53.127Z,14.50
2017-10-04T21:08:22.036Z,14.50
2017-10-04T21:10:50.181Z,14.50
2017-10-04T21:13:19.087Z,14.40
2017-10-04T21:15:47.982Z,14.40
2017-10-04T21:18:17.563Z,14.40
2017-10-04T21:20:46.181Z,14.40
2017-10-04T21:23:14.330Z,14.50
2017-10-04T21:25:43.234Z,14.40
2017-10-04T21:28:12.142Z,14.50
2017-10-04T21:30:40.297Z,14.50
2017-10-04T21:33:09.188Z,14.40
2017-10-04T21:35:37.336Z,14.40
2017-10-04T21:38:05.465Z,14.50
2017-10-04T21:40:33.600Z,14.40
2017-10-04T21:43:02.496Z,14.10
2017-10-04T21:45:30.633Z,14.10
2017-10-04T21:47:58.765Z,14.20
2017-10-04T21:50:26.893Z,14.20
2017-10-04T21:52:55.804Z,14.30
2017-10-04T21:55:23.956Z,14.30
2017-10-04T21:57:52.850Z,14.20
2017-10-04T22:00:21.783Z,14.10
2017-10-04T22:02:49.919Z,14.10
2017-10-04T22:05:18.828Z,14.30
2017-10-04T22:07:46.971Z,14.30
2017-10-04T22:10:15.876Z,14.20
2017-10-04T22:12:44.772Z,14.30
2017-10-04T22:15:12.909Z,14.20
2017-10-04T22:17:41.039Z,14.30
2017-10-04T22:20:09.573Z,14.20
2017-10-04T22:22:37.751Z,14.20
2017-10-04T22:25:05.906Z,14.20
2017-10-04T22:27:34.056Z,14.30
2017-10-04T22:30:02.219Z,14.40
2017-10-04T22:32:30.353Z,14.30
2017-10-04T22:34:59.314Z,14.40
2017-10-04T22:37:27.456Z,14.30
2017-10-04T22:39:55.610Z,14.10
2017-10-04T22:42:23.814Z,14.20
2017-10-04T22:44:51.960Z,14.30
2017-10-04T22:47:20.086Z,14.30
2017-10-04T22:49:48.239Z,14.40
2017-10-04T22:52:16.397Z,14.40
2017-10-04T22:54:44.545Z,14.20
2017-10-04T22:57:12.668Z,14.30
2017-10-04T22:59:40.789Z,14.30
2017-10-04T23:02:09.069Z,14.30
2017-10-04T23:04:38.073Z,14.20
2017-10-04T23:07:06.193Z,14.20
2017-10-04T23:09:35.110Z,14.00
2017-10-04T23:12:03.239Z,14.00
2017-10-04T23:14:31.346Z,13.70
2017-10-04T23:16:59.516Z,13.90
2017-10-04T23:19:28.419Z,13.90
2017-10-04T23:21:56.620Z,13.90
2017-10-04T23:24:24.757Z,13.80
2017-10-04T23:26:52.913Z,13.80
2017-10-04T23:29:21.843Z,13.50
2017-10-04T23:31:49.988Z,13.50
2017-10-04T23:34:18.888Z,13.50
2017-10-04T23:36:47.052Z,13.50
2017-10-04T23:39:15.939Z,13.60
2017-10-04T23:41:44.878Z,13.60
2017-10-04T23:44:12.999Z,13.50
2017-10-04T23:46:41.889Z,13.40
2017-10-04T23:49:10.799Z,13.50
2017-10-04T23:51:38.912Z,13.40
2017-10-04T23:54:07.051Z,13.30
2017-10-04T23:56:35.176Z,13.20
2017-10-04T23:59:03.339Z,13.20
